Airport Name : Bodo

Other Name : Bodo

ICAO : ENBO

IATA : BOO

FAA :

Latitude : 67.269167

Longitude : 14.365278

Country : Norway

Local Date and Time : 03 Dec 2020 11:56

 

TAF (Terminal Aerodrome Forecast)

TAF COR ENBO 0306/0406 09018KT 9999 FEW030 SCT050 BKN100 TEMPO 0306/0309 10018G28KT BECMG 0307/0310 15012KT BECMG 0318/0320 09012KT

 

METAR (METeorological Aerodrome Report)

ENBO 031050Z 13008KT 9999 FEW020 BKN050 05/M01 Q1000 NOSIG

ENBO 031020Z 15012KT 9999 -RA FEW020 SCT030 BKN050 05/M00 Q1001 NOSIG

ENBO 030950Z 16010KT 9999 -RA FEW010 SCT025 BKN050 05/M01 Q1000 NOSIG

ENBO 030920Z 15010KT 9999 FEW008 SCT030 BKN050 05/M01 Q1000 NOSIG

ENBO 030850Z 10004KT 9999 FEW008 SCT030 BKN045 04/M00 Q1000 NOSIG

ENBO 030820Z 09008KT 9999 -RA FEW008 SCT020 BKN040 04/M00 Q1000 NOSIG

ENBO 030750Z 11005KT 9999 -DZRA FEW008 SCT018 BKN025 03/M00 Q1001 NOSIG

ENBO 030720Z 14013KT 9999 -RA FEW008 BKN018 04/M00 Q1000 NOSIG

To Charter a Jet Click here.